Time,TemperatureF,DewpointF,PressureIn,WindDirection,WindDirectionDegrees,WindSpeedMPH,WindSpeedGustMPH,Humidity,HourlyPrecipIn,Conditions,Clouds,dailyrainin,SoftwareType,DateUTC
2013-01-17 00:00:00,35.2,35.1,29.89,West,266,2.0,8.0,99,0.00,,,0.57,meteohub,2013-01-17 05:00:00,
2013-01-17 00:02:00,35.2,35.1,29.89,SW,222,8.0,8.0,99,0.00,,,0.57,meteohub,2013-01-17 05:02:00,
2013-01-17 00:05:00,35.2,35.1,29.89,WSW,258,2.0,8.0,99,0.00,,,0.57,meteohub,2013-01-17 05:05:00,
2013-01-17 00:10:00,35.2,35.1,29.89,West,270,1.0,11.0,99,0.00,,,0.00,meteohub,2013-01-17 05:10:00,
2013-01-17 00:15:00,35.2,35.1,29.89,SW,229,8.0,11.0,99,0.00,,,0.00,meteohub,2013-01-17 05:15:00,
2013-01-17 00:20:00,35.2,35.1,29.90,West,276,1.0,11.0,99,0.00,,,0.00,meteohub,2013-01-17 05:20:00,
2013-01-17 00:25:00,35.1,34.9,29.90,WSW,248,1.0,8.0,99,0.00,,,0.00,meteohub,2013-01-17 05:25:00,
2013-01-17 00:30:00,35.1,34.9,29.90,SW,226,2.0,8.0,99,0.00,,,0.00,meteohub,2013-01-17 05:30:00,
2013-01-17 00:35:00,35.1,34.9,29.90,WNW,284,2.0,6.0,99,0.00,,,0.00,meteohub,2013-01-17 05:35:00,
2013-01-17 00:40:00,35.1,34.9,29.89,West,260,3.0,6.0,99,0.00,,,0.00,meteohub,2013-01-17 05:40:00,
2013-01-17 00:45:00,34.9,34.7,29.90,SW,236,1.0,5.0,99,0.00,,,0.00,meteohub,2013-01-17 05:45:00,
2013-01-17 00:50:00,34.9,34.7,29.90,West,263,4.0,5.0,99,0.00,,,0.00,meteohub,2013-01-17 05:50:00,
2013-01-17 00:55:00,34.9,34.7,29.89,West,278,1.0,5.0,99,0.00,,,0.00,meteohub,2013-01-17 05:55:00,
2013-01-17 01:00:00,34.9,34.7,29.90,WSW,239,1.0,5.0,99,0.00,,,0.00,meteohub,2013-01-17 06:00:00,
2013-01-17 01:05:00,34.7,34.5,29.91,SW,229,2.0,5.0,99,0.00,,,0.00,meteohub,2013-01-17 06:05:00,
2013-01-17 01:10:00,34.9,34.7,29.91,WSW,256,1.0,5.0,99,0.00,,,0.00,meteohub,2013-01-17 06:10:00,
2013-01-17 01:15:00,35.1,34.9,29.90,West,264,6.0,6.0,99,0.00,,,0.00,meteohub,2013-01-17 06:15:00,
2013-01-17 01:20:00,34.9,34.7,29.90,WNW,290,3.0,6.0,99,0.00,,,0.00,meteohub,2013-01-17 06:20:00,
2013-01-17 01:25:00,34.9,34.3,29.91,WSW,246,4.0,10.0,98,0.00,,,0.00,meteohub,2013-01-17 06:25:00,
2013-01-17 01:30:00,34.9,34.3,29.91,SSW,205,4.0,10.0,98,0.00,,,0.00,meteohub,2013-01-17 06:30:00,
2013-01-17 01:35:00,34.7,34.2,29.91,West,276,6.0,10.0,98,0.00,,,0.00,meteohub,2013-01-17 06:35:00,
2013-01-17 01:40:00,34.7,34.2,29.90,West,280,3.0,8.0,98,0.00,,,0.00,meteohub,2013-01-17 06:40:00,
2013-01-17 01:45:00,34.5,34.0,29.90,West,278,2.0,8.0,98,0.00,,,0.00,meteohub,2013-01-17 06:45:00,
2013-01-17 01:50:00,34.5,34.0,29.91,WSW,249,6.0,9.0,98,0.00,,,0.00,meteohub,2013-01-17 06:50:00,
2013-01-17 01:55:00,34.5,34.0,29.90,WSW,242,4.0,9.0,98,0.00,,,0.00,meteohub,2013-01-17 06:55:00,
2013-01-17 02:00:00,34.5,34.0,29.89,WSW,249,1.0,9.0,98,0.00,,,0.00,meteohub,2013-01-17 07:00:00,
2013-01-17 02:05:00,34.5,34.0,29.90,West,276,0.0,7.0,98,0.00,,,0.00,meteohub,2013-01-17 07:05:00,
2013-01-17 02:10:00,34.3,33.8,29.90,WSW,256,6.0,7.0,98,0.00,,,0.00,meteohub,2013-01-17 07:10:00,
2013-01-17 02:15:00,34.5,34.0,29.90,West,280,4.0,7.0,98,0.00,,,0.00,meteohub,2013-01-17 07:15:00,
2013-01-17 02:20:00,34.5,34.0,29.90,WSW,245,6.0,7.0,98,0.00,,,0.00,meteohub,2013-01-17 07:20:00,
2013-01-17 02:25:00,34.5,33.8,29.90,WSW,253,2.0,7.0,97,0.00,,,0.00,meteohub,2013-01-17 07:25:00,
2013-01-17 02:30:00,34.5,33.8,29.90,WSW,249,2.0,7.0,97,0.00,,,0.00,meteohub,2013-01-17 07:30:00,
2013-01-17 02:35:00,34.5,33.8,29.91,WNW,285,1.0,7.0,97,0.00,,,0.00,meteohub,2013-01-17 07:35:00,
2013-01-17 02:40:00,34.5,33.8,29.90,West,273,0.0,6.0,97,0.00,,,0.00,meteohub,2013-01-17 07:40:00,
2013-01-17 02:45:00,34.5,33.8,29.90,WNW,291,5.0,6.0,97,0.00,,,0.00,meteohub,2013-01-17 07:45:00,
2013-01-17 02:50:00,34.3,33.6,29.90,WSW,248,4.0,6.0,97,0.00,,,0.00,meteohub,2013-01-17 07:50:00,
2013-01-17 02:55:00,34.5,33.8,29.90,West,267,1.0,6.0,97,0.00,,,0.00,meteohub,2013-01-17 07:55:00,
2013-01-17 03:00:00,34.5,33.8,29.90,West,270,0.0,6.0,97,0.00,,,0.00,meteohub,2013-01-17 08:00:00,
2013-01-17 03:05:00,34.3,33.6,29.91,WSW,250,4.0,5.0,97,0.00,,,0.00,meteohub,2013-01-17 08:05:00,
2013-01-17 03:10:00,34.3,33.6,29.90,WSW,243,2.0,7.0,97,0.00,,,0.00,meteohub,2013-01-17 08:10:00,
2013-01-17 03:15:00,34.3,33.6,29.91,SW,226,3.0,7.0,97,0.00,,,0.00,meteohub,2013-01-17 08:15:00,
2013-01-17 03:20:00,34.5,33.8,29.91,WSW,240,2.0,7.0,97,0.00,,,0.00,meteohub,2013-01-17 08:20:00,
2013-01-17 03:25:00,34.5,33.8,29.91,West,280,3.0,8.0,97,0.00,,,0.00,meteohub,2013-01-17 08:25:00,
2013-01-17 03:30:00,34.5,33.8,29.90,West,260,5.0,8.0,97,0.00,,,0.00,meteohub,2013-01-17 08:30:00,
2013-01-17 03:35:00,34.5,33.8,29.91,West,269,3.0,9.0,97,0.00,,,0.00,meteohub,2013-01-17 08:35:00,
2013-01-17 03:40:00,34.5,33.4,29.90,SW,236,4.0,9.0,96,0.00,,,0.00,meteohub,2013-01-17 08:40:00,
2013-01-17 03:45:00,34.5,33.4,29.91,WNW,291,5.0,9.0,96,0.00,,,0.00,meteohub,2013-01-17 08:45:00,
2013-01-17 03:50:00,34.5,33.4,29.91,West,270,4.0,7.0,96,0.00,,,0.00,meteohub,2013-01-17 08:50:00,
2013-01-17 03:55:00,34.7,33.6,29.91,SSW,211,6.0,7.0,96,0.00,,,0.00,meteohub,2013-01-17 08:55:00,
2013-01-17 04:00:00,34.7,33.6,29.91,SW,222,3.0,8.0,96,0.00,,,0.00,meteohub,2013-01-17 09:00:00,
2013-01-17 04:05:00,34.7,33.6,29.92,West,263,2.0,8.0,96,0.00,,,0.00,meteohub,2013-01-17 09:05:00,
2013-01-17 04:10:00,34.7,33.6,29.91,SSW,201,2.0,8.0,96,0.00,,,0.00,meteohub,2013-01-17 09:10:00,
2013-01-17 04:15:00,34.9,33.8,29.90,West,260,1.0,7.0,96,0.00,,,0.00,meteohub,2013-01-17 09:15:00,
2013-01-17 04:20:00,34.9,33.8,29.91,West,262,6.0,7.0,96,0.00,,,0.00,meteohub,2013-01-17 09:20:00,
2013-01-17 04:25:00,34.9,33.8,29.90,WSW,249,1.0,8.0,96,0.00,,,0.00,meteohub,2013-01-17 09:25:00,
2013-01-17 04:30:00,34.7,33.4,29.91,WSW,245,3.0,8.0,95,0.00,,,0.00,meteohub,2013-01-17 09:30:00,
2013-01-17 04:35:00,34.7,33.4,29.91,WSW,238,1.0,6.0,95,0.00,,,0.00,meteohub,2013-01-17 09:35:00,
2013-01-17 04:41:00,34.5,33.3,29.90,West,269,1.0,6.0,95,0.00,,,0.00,meteohub,2013-01-17 09:41:00,
2013-01-17 04:46:00,34.5,33.3,29.90,WNW,298,3.0,6.0,95,0.00,,,0.00,meteohub,2013-01-17 09:46:00,
2013-01-17 04:51:00,34.5,33.3,29.90,WNW,284,8.0,8.0,95,0.00,,,0.00,meteohub,2013-01-17 09:51:00,
2013-01-17 04:56:00,34.5,33.3,29.91,West,278,4.0,8.0,95,0.00,,,0.00,meteohub,2013-01-17 09:56:00,
2013-01-17 05:01:00,34.5,32.9,29.91,West,271,3.0,9.0,94,0.00,,,0.00,meteohub,2013-01-17 10:01:00,
2013-01-17 05:06:00,34.7,33.1,29.90,WSW,257,4.0,9.0,94,0.00,,,0.00,meteohub,2013-01-17 10:06:00,
2013-01-17 05:11:00,34.7,32.9,29.89,West,280,4.0,8.0,93,0.00,,,0.00,meteohub,2013-01-17 10:11:00,
2013-01-17 05:16:00,34.7,32.9,29.90,SW,232,5.0,8.0,93,0.00,,,0.00,meteohub,2013-01-17 10:16:00,
2013-01-17 05:21:00,34.7,32.9,29.91,SW,225,6.0,6.0,93,0.00,,,0.00,meteohub,2013-01-17 10:21:00,
2013-01-17 05:26:00,34.7,32.9,29.91,West,270,3.0,6.0,93,0.00,,,0.00,meteohub,2013-01-17 10:26:00,
2013-01-17 05:31:00,34.7,32.5,29.92,West,260,3.0,6.0,92,0.00,,,0.00,meteohub,2013-01-17 10:31:00,
2013-01-17 05:36:00,34.7,32.5,29.91,West,269,2.0,6.0,92,0.00,,,0.00,meteohub,2013-01-17 10:36:00,
2013-01-17 05:41:00,34.7,32.5,29.91,WNW,294,2.0,5.0,92,0.00,,,0.00,meteohub,2013-01-17 10:41:00,
2013-01-17 05:46:00,34.7,32.5,29.91,West,260,2.0,5.0,92,0.00,,,0.00,meteohub,2013-01-17 10:46:00,
2013-01-17 05:51:00,34.9,33.1,29.92,West,280,1.0,5.0,93,0.00,,,0.00,meteohub,2013-01-17 10:51:00,
2013-01-17 05:56:00,35.1,33.3,29.92,West,262,3.0,6.0,93,0.00,,,0.00,meteohub,2013-01-17 10:56:00,
2013-01-17 06:01:00,35.1,32.9,29.92,WSW,249,3.0,6.0,92,0.00,,,0.00,meteohub,2013-01-17 11:01:00,
2013-01-17 06:06:00,35.1,32.9,29.93,West,278,3.0,5.0,92,0.00,,,0.00,meteohub,2013-01-17 11:06:00,
2013-01-17 06:11:00,34.9,32.7,29.93,NNW,330,3.0,5.0,92,0.00,,,0.00,meteohub,2013-01-17 11:11:00,
2013-01-17 06:16:00,34.9,32.7,29.93,WNW,288,2.0,5.0,92,0.00,,,0.00,meteohub,2013-01-17 11:16:00,
2013-01-17 06:21:00,34.9,32.7,29.93,WNW,288,2.0,7.0,92,0.00,,,0.00,meteohub,2013-01-17 11:21:00,
2013-01-17 06:26:00,34.9,32.7,29.94,WNW,295,1.0,7.0,92,0.00,,,0.00,meteohub,2013-01-17 11:26:00,
2013-01-17 06:31:00,34.7,32.5,29.94,West,276,2.0,7.0,92,0.00,,,0.00,meteohub,2013-01-17 11:31:00,
2013-01-17 06:36:00,34.7,32.9,29.94,WNW,284,0.0,5.0,93,0.00,,,0.00,meteohub,2013-01-17 11:36:00,
2013-01-17 06:41:00,34.5,32.7,29.94,West,276,3.0,5.0,93,0.00,,,0.00,meteohub,2013-01-17 11:41:00,
2013-01-17 06:46:00,34.5,32.7,29.94,West,260,1.0,5.0,93,0.00,,,0.00,meteohub,2013-01-17 11:46:00,
2013-01-17 06:51:00,34.5,32.7,29.94,West,281,0.0,5.0,93,0.00,,,0.00,meteohub,2013-01-17 11:51:00,
2013-01-17 06:56:00,34.3,32.5,29.95,West,262,1.0,4.0,93,0.00,,,0.00,meteohub,2013-01-17 11:56:00,
2013-01-17 07:01:00,34.3,32.5,29.95,West,273,1.0,3.0,93,0.00,,,0.00,meteohub,2013-01-17 12:01:00,
2013-01-17 07:06:00,34.2,32.4,29.96,WSW,252,3.0,5.0,93,0.00,,,0.00,meteohub,2013-01-17 12:06:00,
2013-01-17 07:11:00,34.2,32.4,29.96,SSW,212,1.0,6.0,93,0.00,,,0.00,meteohub,2013-01-17 12:11:00,
2013-01-17 07:16:00,34.2,32.4,29.96,West,271,2.0,6.0,93,0.00,,,0.00,meteohub,2013-01-17 12:16:00,
2013-01-17 07:21:00,34.2,32.4,29.96,West,262,1.0,6.0,93,0.00,,,0.00,meteohub,2013-01-17 12:21:00,
2013-01-17 07:26:00,34.3,32.5,29.95,WNW,290,1.0,4.0,93,0.00,,,0.00,meteohub,2013-01-17 12:26:00,
2013-01-17 07:32:00,34.2,32.0,29.96,West,278,1.0,5.0,92,0.00,,,0.00,meteohub,2013-01-17 12:32:00,
2013-01-17 07:36:00,34.3,32.2,29.97,WSW,239,2.0,5.0,92,0.00,,,0.00,meteohub,2013-01-17 12:36:00,
2013-01-17 07:41:00,34.5,32.4,29.98,WSW,255,2.0,5.0,92,0.00,,,0.00,meteohub,2013-01-17 12:41:00,
2013-01-17 07:46:00,34.5,32.4,29.98,South,189,1.0,5.0,92,0.00,,,0.00,meteohub,2013-01-17 12:46:00,
2013-01-17 07:52:00,34.9,32.7,29.99,SSW,204,0.0,5.0,92,0.00,,,0.00,meteohub,2013-01-17 12:52:00,
2013-01-17 07:57:00,35.1,32.7,29.99,SW,222,4.0,4.0,91,0.00,,,0.00,meteohub,2013-01-17 12:57:00,
2013-01-17 08:02:00,35.2,32.9,29.99,SW,219,4.0,5.0,91,0.00,,,0.00,meteohub,2013-01-17 13:02:00,
2013-01-17 08:07:00,35.4,32.7,30.00,WSW,242,6.0,6.0,90,0.00,,,0.00,meteohub,2013-01-17 13:07:00,
2013-01-17 08:12:00,35.8,32.9,29.99,WNW,284,2.0,7.0,89,0.00,,,0.00,meteohub,2013-01-17 13:12:00,
2013-01-17 08:17:00,36.0,33.1,30.00,WNW,294,5.0,9.0,89,0.00,,,0.00,meteohub,2013-01-17 13:17:00,
2013-01-17 08:22:00,36.0,33.1,30.00,West,270,1.0,9.0,89,0.00,,,0.00,meteohub,2013-01-17 13:22:00,
2013-01-17 08:27:00,36.3,33.1,30.00,West,269,1.0,9.0,88,0.00,,,0.00,meteohub,2013-01-17 13:27:00,
2013-01-17 08:32:00,36.3,33.1,30.01,WNW,294,5.0,7.0,88,0.00,,,0.00,meteohub,2013-01-17 13:32:00,
2013-01-17 08:37:00,36.7,33.3,30.00,West,264,4.0,7.0,87,0.00,,,0.00,meteohub,2013-01-17 13:37:00,
2013-01-17 08:42:00,36.5,33.1,30.01,WNW,291,4.0,8.0,87,0.00,,,0.00,meteohub,2013-01-17 13:42:00,
2013-01-17 08:47:00,36.5,32.7,30.02,West,270,4.0,8.0,86,0.00,,,0.00,meteohub,2013-01-17 13:47:00,
2013-01-17 08:52:00,36.7,32.9,30.02,WSW,243,4.0,8.0,86,0.00,,,0.00,meteohub,2013-01-17 13:52:00,
2013-01-17 08:57:00,36.7,32.5,30.02,West,281,4.0,10.0,85,0.00,,,0.00,meteohub,2013-01-17 13:57:00,
2013-01-17 09:02:00,36.9,32.7,30.03,WSW,239,1.0,10.0,85,0.00,,,0.00,meteohub,2013-01-17 14:02:00,
2013-01-17 09:07:00,37.0,32.7,30.03,WNW,302,6.0,10.0,84,0.00,,,0.00,meteohub,2013-01-17 14:07:00,
2013-01-17 09:12:00,37.2,32.9,30.03,WSW,243,7.0,7.0,84,0.00,,,0.00,meteohub,2013-01-17 14:12:00,
2013-01-17 09:17:00,37.2,32.9,30.02,WSW,249,5.0,8.0,84,0.00,,,0.00,meteohub,2013-01-17 14:17:00,
2013-01-17 09:22:00,37.2,32.5,30.02,WSW,242,4.0,8.0,83,0.00,,,0.00,meteohub,2013-01-17 14:22:00,
2013-01-17 09:27:00,37.2,32.5,30.02,West,270,0.0,8.0,83,0.00,,,0.00,meteohub,2013-01-17 14:27:00,
2013-01-17 09:32:00,37.2,32.5,30.02,WSW,242,5.0,8.0,83,0.00,,,0.00,meteohub,2013-01-17 14:32:00,
2013-01-17 09:37:00,37.6,32.5,30.02,WNW,298,4.0,8.0,82,0.00,,,0.00,meteohub,2013-01-17 14:37:00,
2013-01-17 09:42:00,37.9,32.9,30.03,WNW,287,5.0,8.0,82,0.00,,,0.00,meteohub,2013-01-17 14:42:00,
2013-01-17 09:47:00,37.9,32.4,30.03,NW,311,6.0,11.0,80,0.00,,,0.00,meteohub,2013-01-17 14:47:00,
2013-01-17 09:52:00,37.9,32.0,30.03,WNW,288,5.0,11.0,79,0.00,,,0.00,meteohub,2013-01-17 14:52:00,
2013-01-17 09:57:00,38.1,32.2,30.03,NW,305,4.0,11.0,79,0.00,,,0.00,meteohub,2013-01-17 14:57:00,
2013-01-17 10:02:00,38.5,32.2,30.03,WNW,293,6.0,11.0,78,0.00,,,0.00,meteohub,2013-01-17 15:02:00,
2013-01-17 10:07:00,38.7,31.8,30.04,West,265,10.0,10.0,76,0.00,,,0.00,meteohub,2013-01-17 15:07:00,
2013-01-17 10:12:00,38.7,31.8,30.03,WNW,289,9.0,11.0,76,0.00,,,0.00,meteohub,2013-01-17 15:12:00,
2013-01-17 10:17:00,38.8,32.0,30.02,NW,312,9.0,14.0,76,0.00,,,0.00,meteohub,2013-01-17 15:17:00,
2013-01-17 10:22:00,39.0,31.5,30.03,WNW,298,4.0,19.0,74,0.00,,,0.00,meteohub,2013-01-17 15:22:00,
2013-01-17 10:27:00,39.2,30.6,30.03,WNW,294,15.0,19.0,71,0.00,,,0.00,meteohub,2013-01-17 15:27:00,
2013-01-17 10:32:00,39.4,30.4,30.02,WNW,302,11.0,19.0,70,0.00,,,0.00,meteohub,2013-01-17 15:32:00,
2013-01-17 10:37:00,39.7,31.1,30.02,WNW,296,11.0,19.0,71,0.00,,,0.00,meteohub,2013-01-17 15:37:00,
2013-01-17 10:42:00,39.7,30.7,30.02,WNW,285,7.0,19.0,70,0.00,,,0.00,meteohub,2013-01-17 15:42:00,
2013-01-17 10:47:00,39.7,30.4,30.02,West,278,7.0,18.0,69,0.00,,,0.00,meteohub,2013-01-17 15:47:00,
2013-01-17 10:52:00,39.9,30.6,30.02,WNW,301,10.0,18.0,69,0.00,,,0.00,meteohub,2013-01-17 15:52:00,
2013-01-17 10:57:00,40.1,30.4,30.02,WNW,293,6.0,18.0,68,0.00,,,0.00,meteohub,2013-01-17 15:57:00,
2013-01-17 11:02:00,40.3,30.6,30.02,WNW,295,9.0,17.0,68,0.00,,,0.00,meteohub,2013-01-17 16:02:00,
2013-01-17 11:07:00,40.3,30.2,30.01,WNW,293,6.0,16.0,67,0.00,,,0.00,meteohub,2013-01-17 16:07:00,
2013-01-17 11:12:00,40.5,30.4,30.00,NW,312,13.0,16.0,67,0.00,,,0.00,meteohub,2013-01-17 16:12:00,
2013-01-17 11:17:00,40.5,30.4,30.00,WNW,285,13.0,16.0,67,0.00,,,0.00,meteohub,2013-01-17 16:17:00,
2013-01-17 11:22:00,40.5,30.7,30.00,NW,304,3.0,17.0,68,0.00,,,0.00,meteohub,2013-01-17 16:22:00,
2013-01-17 11:27:00,40.5,30.0,30.01,NW,320,5.0,17.0,66,0.00,,,0.00,meteohub,2013-01-17 16:27:00,
2013-01-17 11:32:00,40.3,29.8,30.01,NW,316,13.0,17.0,66,0.00,,,0.00,meteohub,2013-01-17 16:32:00,
2013-01-17 11:37:00,40.3,29.8,30.01,NW,323,7.0,17.0,66,0.00,,,0.00,meteohub,2013-01-17 16:37:00,
2013-01-17 11:42:00,40.5,30.4,30.00,WNW,294,5.0,16.0,67,0.00,,,0.00,meteohub,2013-01-17 16:42:00,
2013-01-17 11:47:00,40.6,30.6,30.01,NW,311,11.0,16.0,67,0.00,,,0.00,meteohub,2013-01-17 16:47:00,
2013-01-17 11:52:00,40.6,29.8,30.00,WNW,297,12.0,18.0,65,0.00,,,0.00,meteohub,2013-01-17 16:52:00,
2013-01-17 11:57:00,40.8,30.4,30.00,WNW,295,4.0,19.0,66,0.00,,,0.00,meteohub,2013-01-17 16:57:00,
2013-01-17 12:02:00,41.2,30.7,29.99,NNW,330,3.0,19.0,66,0.00,,,0.00,meteohub,2013-01-17 17:02:00,
2013-01-17 12:07:00,41.2,30.4,30.00,NW,316,11.0,18.0,65,0.00,,,0.00,meteohub,2013-01-17 17:07:00,
2013-01-17 12:12:00,41.0,29.8,29.99,WNW,283,10.0,16.0,64,0.00,,,0.00,meteohub,2013-01-17 17:12:00,
2013-01-17 12:17:00,41.0,29.8,30.00,NW,304,10.0,19.0,64,0.00,,,0.00,meteohub,2013-01-17 17:17:00,
2013-01-17 12:22:00,41.4,30.6,30.00,WNW,290,6.0,20.0,65,0.00,,,0.00,meteohub,2013-01-17 17:22:00,
2013-01-17 12:27:00,41.5,30.2,30.00,NW,322,7.0,20.0,64,0.00,,,0.00,meteohub,2013-01-17 17:27:00,
2013-01-17 12:32:00,41.7,30.7,30.00,North,350,8.0,20.0,65,0.00,,,0.00,meteohub,2013-01-17 17:32:00,
2013-01-17 12:37:00,41.7,29.7,30.00,NNW,328,12.0,18.0,62,0.00,,,0.00,meteohub,2013-01-17 17:37:00,
2013-01-17 12:42:00,41.9,30.2,30.01,NNW,330,6.0,20.0,63,0.00,,,0.00,meteohub,2013-01-17 17:42:00,
2013-01-17 12:47:00,42.1,30.0,30.00,NW,308,13.0,20.0,62,0.00,,,0.00,meteohub,2013-01-17 17:47:00,
2013-01-17 12:52:00,42.1,30.0,30.00,West,281,7.0,20.0,62,0.00,,,0.00,meteohub,2013-01-17 17:52:00,
2013-01-17 12:57:00,42.1,30.0,30.00,WNW,293,8.0,16.0,62,0.00,,,0.00,meteohub,2013-01-17 17:57:00,
2013-01-17 13:02:00,42.3,30.2,30.01,WNW,288,11.0,16.0,62,0.00,,,0.00,meteohub,2013-01-17 18:02:00,
2013-01-17 13:07:00,42.1,30.4,30.02,NNW,330,5.0,16.0,63,0.00,,,0.00,meteohub,2013-01-17 18:07:00,
2013-01-17 13:12:00,42.4,30.4,30.01,WNW,294,12.0,15.0,62,0.00,,,0.00,meteohub,2013-01-17 18:12:00,
2013-01-17 13:17:00,42.3,30.6,30.01,NW,312,11.0,15.0,63,0.00,,,0.00,meteohub,2013-01-17 18:17:00,
2013-01-17 13:22:00,42.4,30.4,30.01,WNW,298,5.0,14.0,62,0.00,,,0.00,meteohub,2013-01-17 18:22:00,
2013-01-17 13:27:00,42.8,31.1,30.01,WNW,298,9.0,14.0,63,0.00,,,0.00,meteohub,2013-01-17 18:27:00,
2013-01-17 13:32:00,43.0,30.9,30.01,NW,312,9.0,13.0,62,0.00,,,0.00,meteohub,2013-01-17 18:32:00,
2013-01-17 13:37:00,43.0,30.4,30.01,WNW,290,9.0,15.0,61,0.00,,,0.00,meteohub,2013-01-17 18:37:00,
2013-01-17 13:42:00,43.0,30.0,30.01,West,278,9.0,15.0,60,0.00,,,0.00,meteohub,2013-01-17 18:42:00,
2013-01-17 13:47:00,43.3,30.7,30.01,WNW,302,8.0,13.0,61,0.00,,,0.00,meteohub,2013-01-17 18:47:00,
2013-01-17 13:52:00,43.3,30.4,30.01,WNW,297,6.0,13.0,60,0.00,,,0.00,meteohub,2013-01-17 18:52:00,
2013-01-17 13:57:00,43.3,30.7,30.01,WNW,294,13.0,14.0,61,0.00,,,0.00,meteohub,2013-01-17 18:57:00,
2013-01-17 14:02:00,43.2,30.6,30.02,NW,314,11.0,14.0,61,0.00,,,0.00,meteohub,2013-01-17 19:02:00,
2013-01-17 14:07:00,43.0,29.7,30.02,NW,314,15.0,15.0,59,0.00,,,0.00,meteohub,2013-01-17 19:07:00,
2013-01-17 14:12:00,42.6,29.7,30.01,NW,326,8.0,17.0,60,0.00,,,0.00,meteohub,2013-01-17 19:12:00,
2013-01-17 14:17:00,42.8,30.2,30.02,NNW,333,6.0,17.0,61,0.00,,,0.00,meteohub,2013-01-17 19:17:00,
2013-01-17 14:22:00,42.8,29.8,30.02,WNW,288,3.0,17.0,60,0.00,,,0.00,meteohub,2013-01-17 19:22:00,
2013-01-17 14:27:00,42.8,29.8,30.03,WNW,298,4.0,13.0,60,0.00,,,0.00,meteohub,2013-01-17 19:27:00,
2013-01-17 14:32:00,42.6,29.7,30.03,WNW,295,8.0,13.0,60,0.00,,,0.00,meteohub,2013-01-17 19:32:00,
2013-01-17 14:37:00,42.4,30.0,30.03,North,355,9.0,14.0,61,0.00,,,0.00,meteohub,2013-01-17 19:37:00,
2013-01-17 14:42:00,42.4,29.5,30.03,WNW,298,6.0,14.0,60,0.00,,,0.00,meteohub,2013-01-17 19:42:00,
2013-01-17 14:47:00,42.4,29.5,30.02,NW,313,6.0,14.0,60,0.00,,,0.00,meteohub,2013-01-17 19:47:00,
2013-01-17 14:52:00,42.4,30.0,30.03,WNW,293,9.0,11.0,61,0.00,,,0.00,meteohub,2013-01-17 19:52:00,
2013-01-17 14:57:00,42.6,29.7,30.03,WNW,293,1.0,10.0,60,0.00,,,0.00,meteohub,2013-01-17 19:57:00,
2013-01-17 15:02:00,42.6,29.3,30.03,NW,304,8.0,9.0,59,0.00,,,0.00,meteohub,2013-01-17 20:02:00,
2013-01-17 15:07:00,42.4,28.8,30.03,NNW,346,4.0,12.0,58,0.00,,,0.00,meteohub,2013-01-17 20:07:00,
2013-01-17 15:12:00,42.4,29.1,30.03,NNW,346,8.0,15.0,59,0.00,,,0.00,meteohub,2013-01-17 20:12:00,
2013-01-17 15:17:00,42.4,28.8,30.03,NNW,337,5.0,15.0,58,0.00,,,0.00,meteohub,2013-01-17 20:17:00,
2013-01-17 15:22:00,42.3,28.6,30.03,NNW,328,13.0,13.0,58,0.00,,,0.00,meteohub,2013-01-17 20:22:00,
2013-01-17 15:28:00,42.1,28.8,30.03,NW,313,4.0,16.0,59,0.00,,,0.00,meteohub,2013-01-17 20:28:00,
2013-01-17 15:33:00,42.1,28.8,30.03,NNW,342,7.0,16.0,59,0.00,,,0.00,meteohub,2013-01-17 20:33:00,
2013-01-17 15:38:00,41.7,28.4,30.04,NNW,335,6.0,16.0,59,0.00,,,0.00,meteohub,2013-01-17 20:38:00,
2013-01-17 15:43:00,41.7,28.9,30.05,NW,325,10.0,13.0,60,0.00,,,0.00,meteohub,2013-01-17 20:43:00,
2013-01-17 15:48:00,41.7,28.9,30.04,NW,325,8.0,12.0,60,0.00,,,0.00,meteohub,2013-01-17 20:48:00,
2013-01-17 15:53:00,41.5,28.8,30.04,WNW,302,7.0,13.0,60,0.00,,,0.00,meteohub,2013-01-17 20:53:00,
2013-01-17 15:58:00,41.5,28.8,30.05,NNW,335,4.0,13.0,60,0.00,,,0.00,meteohub,2013-01-17 20:58:00,
2013-01-17 16:03:00,41.5,29.1,30.05,NW,305,3.0,11.0,61,0.00,,,0.00,meteohub,2013-01-17 21:03:00,
2013-01-17 16:08:00,41.5,29.1,30.04,North,356,5.0,10.0,61,0.00,,,0.00,meteohub,2013-01-17 21:08:00,
2013-01-17 16:13:00,41.4,28.6,30.04,NW,323,6.0,8.0,60,0.00,,,0.00,meteohub,2013-01-17 21:13:00,
2013-01-17 16:18:00,41.2,28.4,30.05,WNW,298,5.0,8.0,60,0.00,,,0.00,meteohub,2013-01-17 21:18:00,
2013-01-17 16:23:00,41.2,28.8,30.05,WNW,302,4.0,8.0,61,0.00,,,0.00,meteohub,2013-01-17 21:23:00,
2013-01-17 16:28:00,41.0,28.6,30.05,NW,319,1.0,8.0,61,0.00,,,0.00,meteohub,2013-01-17 21:28:00,
2013-01-17 16:33:00,40.8,28.8,30.05,WNW,299,1.0,8.0,62,0.00,,,0.00,meteohub,2013-01-17 21:33:00,
2013-01-17 16:38:00,40.6,28.6,30.06,WNW,288,0.0,7.0,62,0.00,,,0.00,meteohub,2013-01-17 21:38:00,
2013-01-17 16:43:00,40.6,29.5,30.06,NW,306,0.0,3.0,64,0.00,,,0.00,meteohub,2013-01-17 21:43:00,
2013-01-17 16:48:00,40.5,28.9,30.06,WNW,285,2.0,3.0,63,0.00,,,0.00,meteohub,2013-01-17 21:48:00,
2013-01-17 16:53:00,40.5,28.9,30.06,West,277,2.0,3.0,63,0.00,,,0.00,meteohub,2013-01-17 21:53:00,
2013-01-17 16:58:00,40.3,28.8,30.07,West,281,0.0,3.0,63,0.00,,,0.00,meteohub,2013-01-17 21:58:00,
2013-01-17 17:03:00,40.3,29.1,30.07,West,278,0.0,2.0,64,0.00,,,0.00,meteohub,2013-01-17 22:03:00,
2013-01-17 17:08:00,40.1,28.9,30.07,WSW,239,0.0,2.0,64,0.00,,,0.00,meteohub,2013-01-17 22:08:00,
2013-01-17 17:13:00,39.9,28.8,30.07,West,278,0.0,1.0,64,0.00,,,0.00,meteohub,2013-01-17 22:13:00,
2013-01-17 17:18:00,39.9,29.1,30.06,WNW,299,0.0,1.0,65,0.00,,,0.00,meteohub,2013-01-17 22:18:00,
2013-01-17 17:23:00,39.9,28.8,30.07,West,281,0.0,2.0,64,0.00,,,0.00,meteohub,2013-01-17 22:23:00,
2013-01-17 17:28:00,39.7,28.9,30.07,WNW,298,1.0,2.0,65,0.00,,,0.00,meteohub,2013-01-17 22:28:00,
2013-01-17 17:33:00,39.7,28.9,30.08,West,281,3.0,3.0,65,0.00,,,0.00,meteohub,2013-01-17 22:33:00,
2013-01-17 17:38:00,39.6,28.0,30.08,NW,307,2.0,3.0,63,0.00,,,0.00,meteohub,2013-01-17 22:38:00,
2013-01-17 17:43:00,39.6,28.4,30.07,NW,310,3.0,3.0,64,0.00,,,0.00,meteohub,2013-01-17 22:43:00,
2013-01-17 17:48:00,39.6,28.4,30.08,WNW,300,3.0,4.0,64,0.00,,,0.00,meteohub,2013-01-17 22:48:00,
2013-01-17 17:53:00,39.4,28.2,30.08,West,280,1.0,6.0,64,0.00,,,0.00,meteohub,2013-01-17 22:53:00,
2013-01-17 17:58:00,39.4,28.6,30.09,WNW,302,1.0,6.0,65,0.00,,,0.00,meteohub,2013-01-17 22:58:00,
2013-01-17 18:03:00,39.2,28.0,30.09,NW,320,1.0,4.0,64,0.00,,,0.00,meteohub,2013-01-17 23:03:00,
2013-01-17 18:08:00,39.0,28.2,30.09,NW,305,0.0,4.0,65,0.00,,,0.00,meteohub,2013-01-17 23:08:00,
2013-01-17 18:13:00,38.8,28.0,30.08,NW,316,1.0,4.0,65,0.00,,,0.00,meteohub,2013-01-17 23:13:00,
2013-01-17 18:18:00,38.8,28.0,30.09,WNW,294,2.0,3.0,65,0.00,,,0.00,meteohub,2013-01-17 23:18:00,
2013-01-17 18:23:00,38.8,28.4,30.09,WNW,285,0.0,4.0,66,0.00,,,0.00,meteohub,2013-01-17 23:23:00,
2013-01-17 18:28:00,38.7,28.2,30.09,NW,310,2.0,4.0,66,0.00,,,0.00,meteohub,2013-01-17 23:28:00,
2013-01-17 18:33:00,38.7,28.2,30.09,NW,304,1.0,3.0,66,0.00,,,0.00,meteohub,2013-01-17 23:33:00,
2013-01-17 18:38:00,38.7,27.1,30.09,NNW,328,4.0,5.0,63,0.00,,,0.00,meteohub,2013-01-17 23:38:00,
2013-01-17 18:43:00,38.8,27.3,30.09,NNW,328,3.0,9.0,63,0.00,,,0.00,meteohub,2013-01-17 23:43:00,
2013-01-17 18:48:00,38.8,27.3,30.09,WNW,295,1.0,9.0,63,0.00,,,0.00,meteohub,2013-01-17 23:48:00,
2013-01-17 18:54:00,38.7,27.5,30.09,NW,304,1.0,9.0,64,0.00,,,0.00,meteohub,2013-01-17 23:54:00,
2013-01-17 18:59:00,38.5,27.3,30.09,WNW,290,0.0,5.0,64,0.00,,,0.00,meteohub,2013-01-17 23:59:00,
2013-01-17 19:04:00,38.5,27.3,30.09,NW,308,4.0,4.0,64,0.00,,,0.00,meteohub,2013-01-18 00:04:00,
2013-01-17 19:09:00,38.5,27.3,30.10,WNW,294,2.0,3.0,64,0.00,,,0.00,meteohub,2013-01-18 00:09:00,
2013-01-17 19:14:00,38.3,27.5,30.10,WNW,300,1.0,5.0,65,0.00,,,0.00,meteohub,2013-01-18 00:14:00,
2013-01-17 19:19:00,38.3,27.1,30.09,WNW,302,4.0,5.0,64,0.00,,,0.00,meteohub,2013-01-18 00:19:00,
2013-01-17 19:24:00,38.3,27.1,30.09,NNW,333,2.0,5.0,64,0.00,,,0.00,meteohub,2013-01-18 00:24:00,
2013-01-17 19:29:00,38.3,27.1,30.08,North,358,0.0,5.0,64,0.00,,,0.00,meteohub,2013-01-18 00:29:00,
2013-01-17 19:34:00,38.3,26.8,30.09,NNW,328,2.0,5.0,63,0.00,,,0.00,meteohub,2013-01-18 00:34:00,
2013-01-17 19:39:00,38.1,26.6,30.09,WNW,297,3.0,5.0,63,0.00,,,0.00,meteohub,2013-01-18 00:39:00,
2013-01-17 19:44:00,38.1,27.0,30.10,NNW,342,1.0,5.0,64,0.00,,,0.00,meteohub,2013-01-18 00:44:00,
2013-01-17 19:49:00,37.9,26.8,30.10,NNW,333,6.0,6.0,64,0.00,,,0.00,meteohub,2013-01-18 00:49:00,
2013-01-17 19:54:00,37.9,26.8,30.09,NNW,347,4.0,6.0,64,0.00,,,0.00,meteohub,2013-01-18 00:54:00,
2013-01-17 19:59:00,37.8,26.2,30.09,NNW,342,7.0,10.0,63,0.00,,,0.00,meteohub,2013-01-18 00:59:00,
2013-01-17 20:04:00,37.8,26.2,30.08,NW,304,3.0,10.0,63,0.00,,,0.00,meteohub,2013-01-18 01:04:00,
2013-01-17 20:09:00,37.6,26.1,30.08,NW,322,4.0,9.0,63,0.00,,,0.00,meteohub,2013-01-18 01:09:00,
2013-01-17 20:14:00,37.6,26.1,30.08,NW,316,5.0,9.0,63,0.00,,,0.00,meteohub,2013-01-18 01:14:00,
2013-01-17 20:19:00,37.4,26.4,30.07,NW,324,6.0,9.0,64,0.00,,,0.00,meteohub,2013-01-18 01:19:00,
2013-01-17 20:24:00,37.2,26.2,30.08,NW,310,4.0,9.0,64,0.00,,,0.00,meteohub,2013-01-18 01:24:00,
2013-01-17 20:29:00,37.2,26.6,30.07,NNW,340,7.0,8.0,65,0.00,,,0.00,meteohub,2013-01-18 01:29:00,
2013-01-17 20:34:00,37.0,26.1,30.08,WNW,302,3.0,8.0,64,0.00,,,0.00,meteohub,2013-01-18 01:34:00,
2013-01-17 20:39:00,37.0,26.1,30.09,NNW,333,6.0,10.0,64,0.00,,,0.00,meteohub,2013-01-18 01:39:00,
2013-01-17 20:44:00,36.9,25.9,30.09,NNW,328,7.0,10.0,64,0.00,,,0.00,meteohub,2013-01-18 01:44:00,
2013-01-17 20:49:00,36.9,25.5,30.08,NW,320,9.0,12.0,63,0.00,,,0.00,meteohub,2013-01-18 01:49:00,
2013-01-17 20:54:00,36.9,25.0,30.09,NW,305,5.0,13.0,62,0.00,,,0.00,meteohub,2013-01-18 01:54:00,
2013-01-17 20:59:00,36.7,25.3,30.09,NW,311,8.0,13.0,63,0.00,,,0.00,meteohub,2013-01-18 01:59:00,
2013-01-17 21:04:00,36.7,24.4,30.10,NW,318,7.0,13.0,61,0.00,,,0.00,meteohub,2013-01-18 02:04:00,
2013-01-17 21:09:00,36.5,23.9,30.09,WNW,301,8.0,13.0,60,0.00,,,0.00,meteohub,2013-01-18 02:09:00,
2013-01-17 21:14:00,36.3,23.7,30.09,NNW,344,6.0,15.0,60,0.00,,,0.00,meteohub,2013-01-18 02:14:00,
2013-01-17 21:19:00,36.3,23.7,30.09,NW,312,10.0,15.0,60,0.00,,,0.00,meteohub,2013-01-18 02:19:00,
2013-01-17 21:24:00,36.1,23.5,30.09,NW,321,5.0,15.0,60,0.00,,,0.00,meteohub,2013-01-18 02:24:00,
2013-01-17 21:29:00,36.1,24.1,30.08,WNW,302,6.0,15.0,61,0.00,,,0.00,meteohub,2013-01-18 02:29:00,
2013-01-17 21:34:00,36.0,24.3,30.08,NW,311,1.0,15.0,62,0.00,,,0.00,meteohub,2013-01-18 02:34:00,
2013-01-17 21:39:00,36.0,23.9,30.07,NNW,336,6.0,9.0,61,0.00,,,0.00,meteohub,2013-01-18 02:39:00,
2013-01-17 21:44:00,35.8,23.7,30.07,NNW,347,4.0,9.0,61,0.00,,,0.00,meteohub,2013-01-18 02:44:00,
2013-01-17 21:49:00,35.8,23.7,30.07,NNW,337,6.0,9.0,61,0.00,,,0.00,meteohub,2013-01-18 02:49:00,
2013-01-17 21:54:00,35.8,23.7,30.07,North,358,5.0,9.0,61,0.00,,,0.00,meteohub,2013-01-18 02:54:00,
2013-01-17 21:59:00,35.4,23.7,30.07,NNW,333,4.0,10.0,62,0.00,,,0.00,meteohub,2013-01-18 02:59:00,
2013-01-17 22:04:00,35.4,23.7,30.08,NW,325,4.0,10.0,62,0.00,,,0.00,meteohub,2013-01-18 03:04:00,
2013-01-17 22:10:00,35.4,23.4,30.09,NW,323,4.0,10.0,61,0.00,,,0.00,meteohub,2013-01-18 03:10:00,
2013-01-17 22:15:00,35.4,23.4,30.09,NNW,335,7.0,9.0,61,0.00,,,0.00,meteohub,2013-01-18 03:15:00,
2013-01-17 22:20:00,35.4,23.7,30.09,NW,322,5.0,10.0,62,0.00,,,0.00,meteohub,2013-01-18 03:20:00,
2013-01-17 22:25:00,35.2,23.9,30.08,NW,312,5.0,11.0,63,0.00,,,0.00,meteohub,2013-01-18 03:25:00,
2013-01-17 22:30:00,35.1,24.4,30.08,NW,322,5.0,11.0,65,0.00,,,0.00,meteohub,2013-01-18 03:30:00,
2013-01-17 22:35:00,34.7,24.4,30.07,NNW,338,7.0,11.0,66,0.00,,,0.00,meteohub,2013-01-18 03:35:00,
2013-01-17 22:40:00,34.3,24.8,30.07,North,8,5.0,10.0,68,0.00,,,0.00,meteohub,2013-01-18 03:40:00,
2013-01-17 22:45:00,34.2,24.6,30.06,NNW,338,4.0,11.0,68,0.00,,,0.00,meteohub,2013-01-18 03:45:00,
2013-01-17 22:50:00,34.2,25.0,30.06,NW,304,3.0,11.0,69,0.00,,,0.00,meteohub,2013-01-18 03:50:00,
2013-01-17 22:55:00,34.0,24.8,30.06,North,352,3.0,11.0,69,0.00,,,0.00,meteohub,2013-01-18 03:55:00,
2013-01-17 23:00:00,34.0,25.2,30.04,North,352,8.0,11.0,70,0.00,,,0.00,meteohub,2013-01-18 04:00:00,
2013-01-17 23:05:00,33.6,25.2,30.01,NNW,346,3.0,9.0,71,0.00,,,0.00,meteohub,2013-01-18 04:05:00,
2013-01-17 23:10:00,33.4,25.3,30.01,NNW,335,4.0,12.0,72,0.00,,,0.00,meteohub,2013-01-18 04:10:00,
2013-01-17 23:15:00,33.4,25.7,30.03,NNW,330,3.0,12.0,73,0.00,,,0.00,meteohub,2013-01-18 04:15:00,
2013-01-17 23:20:00,33.3,25.5,30.03,North,354,2.0,12.0,73,0.00,,,0.00,meteohub,2013-01-18 04:20:00,
2013-01-17 23:25:00,33.3,25.9,30.04,North,356,4.0,10.0,74,0.00,,,0.00,meteohub,2013-01-18 04:25:00,
2013-01-17 23:30:00,33.3,25.2,30.05,NW,312,2.0,10.0,72,0.00,,,0.00,meteohub,2013-01-18 04:30:00,
2013-01-17 23:35:00,33.3,24.3,30.06,NNE,26,7.0,10.0,69,0.00,,,0.00,meteohub,2013-01-18 04:35:00,
2013-01-17 23:40:00,33.4,23.7,30.06,NNW,338,10.0,13.0,67,0.00,,,0.00,meteohub,2013-01-18 04:40:00,
2013-01-17 23:45:00,33.4,23.0,30.05,North,352,4.0,13.0,65,0.00,,,0.00,meteohub,2013-01-18 04:45:00,
2013-01-17 23:50:00,33.4,22.6,30.05,NNW,339,3.0,13.0,64,0.00,,,0.00,meteohub,2013-01-18 04:50:00,
2013-01-17 23:55:00,33.3,22.5,30.06,NE,39,2.0,12.0,64,0.00,,,0.00,meteohub,2013-01-18 04:55:00,